Time;durP1;ratioP1;P1;durP2;ratioP2;P2;SDS_P1;SDS_P2;PMS_P1;PMS_P2;Temp;Humidity;BMP_temperature;BMP_pressure;BME280_temperature;BME280_humidity;BME280_pressure;Samples;Min_cycle;Max_cycle;Signal;HPM_P1;HPM_P2
2023/07/04 00:00:23;;;;;;;5.53;2.77;;;16.90;64.50;;;;;;5095101;28;20542;-72
2023/07/04 00:02:52;;;;;;;8.13;2.90;;;16.90;64.60;;;;;;5097507;28;20450;-73
2023/07/04 00:05:17;;;;;;;7.33;3.40;;;16.90;64.80;;;;;;5116467;28;20210;-73
2023/07/04 00:07:43;;;;;;;6.23;2.43;;;16.90;64.80;;;;;;5108836;28;20731;-72
2023/07/04 00:10:09;;;;;;;11.63;3.57;;;17.00;65.00;;;;;;5112260;28;20212;-73
2023/07/04 00:12:34;;;;;;;7.60;2.57;;;17.00;65.20;;;;;;5099357;28;20189;-72
2023/07/04 00:15:00;;;;;;;8.73;2.90;;;17.00;65.00;;;;;;5096832;28;20423;-73
2023/07/04 00:17:27;;;;;;;4.73;3.03;;;17.00;65.10;;;;;;5102867;28;20180;-72
2023/07/04 00:19:53;;;;;;;9.03;3.33;;;17.00;65.40;;;;;;5120830;28;20548;-73
2023/07/04 00:22:18;;;;;;;9.87;3.07;;;17.00;65.70;;;;;;5119476;28;20484;-72
2023/07/04 00:24:44;;;;;;;9.80;3.30;;;17.00;66.10;;;;;;5107933;28;20437;-73
2023/07/04 00:27:14;;;;;;;5.53;3.20;;;16.90;66.30;;;;;;5103518;28;20226;-71
2023/07/04 00:29:40;;;;;;;8.47;2.70;;;16.90;66.60;;;;;;5116297;28;20680;-74
2023/07/04 00:32:07;;;;;;;7.43;3.40;;;16.90;67.00;;;;;;5083745;28;20415;-73
2023/07/04 00:34:33;;;;;;;6.13;2.97;;;16.90;67.40;;;;;;5117876;28;20864;-71
2023/07/04 00:37:00;;;;;;;9.57;3.10;;;16.90;67.70;;;;;;5081250;28;20735;-71
2023/07/04 00:39:29;;;;;;;3.50;2.50;;;16.90;68.00;;;;;;5109526;28;20776;-71
2023/07/04 00:41:56;;;;;;;7.67;2.90;;;16.80;68.40;;;;;;5101153;28;20998;-73
2023/07/04 00:44:24;;;;;;;9.53;2.80;;;16.80;69.10;;;;;;5080236;28;20425;-72
2023/07/04 00:46:52;;;;;;;5.90;2.67;;;16.70;69.80;;;;;;5081042;28;20601;-72
2023/07/04 00:49:45;;;;;;;6.47;2.87;;;16.60;71.70;;;;;;5097950;28;20724;-73
2023/07/04 00:52:10;;;;;;;4.23;2.00;;;16.50;72.10;;;;;;5098996;28;20514;-71
2023/07/04 00:54:40;;;;;;;5.47;2.77;;;16.40;73.10;;;;;;5112399;28;20440;-73
2023/07/04 00:57:07;;;;;;;5.53;2.80;;;16.50;74.20;;;;;;5119833;28;20231;-72
2023/07/04 00:59:34;;;;;;;3.97;2.43;;;16.40;75.30;;;;;;5083460;28;20825;-72
2023/07/04 01:02:00;;;;;;;6.23;3.30;;;16.40;75.80;;;;;;5067985;28;20531;-71
2023/07/04 01:04:26;;;;;;;5.17;2.63;;;16.30;76.30;;;;;;5092401;28;20461;-72
2023/07/04 01:07:06;;;;;;;5.23;2.77;;;16.20;78.20;;;;;;5080914;28;20702;-72
2023/07/04 01:09:32;;;;;;;5.60;3.40;;;16.10;79.30;;;;;;5079129;28;20623;-72
2023/07/04 01:12:02;;;;;;;5.60;2.40;;;16.00;80.60;;;;;;5076177;28;20428;-73
2023/07/04 01:14:27;;;;;;;6.43;3.33;;;16.00;82.00;;;;;;5097209;28;20417;-72
2023/07/04 01:16:54;;;;;;;5.57;2.57;;;15.90;83.70;;;;;;5078829;28;20840;-71
2023/07/04 01:19:30;;;;;;;6.73;2.90;;;15.80;84.70;;;;;;5103213;28;20276;-72
2023/07/04 01:22:29;;;;;;;5.67;2.70;;;15.80;86.90;;;;;;5080774;28;20426;-72
2023/07/04 01:25:34;;;;;;;5.67;2.80;;;15.70;87.40;;;;;;5060873;28;20414;-73
2023/07/04 01:28:03;;;;;;;7.47;2.60;;;15.60;88.50;;;;;;5083704;28;20429;-72
2023/07/04 01:30:32;;;;;;;4.90;2.30;;;15.60;90.00;;;;;;5102058;28;20458;-72
2023/07/04 01:32:59;;;;;;;10.70;3.90;;;15.60;90.40;;;;;;5081140;28;20416;-72
2023/07/04 01:35:26;;;;;;;9.30;3.30;;;15.50;91.10;;;;;;5114420;28;20868;-72
2023/07/04 01:37:52;;;;;;;7.87;2.80;;;15.50;91.60;;;;;;5118849;28;20444;-71
2023/07/04 01:40:17;;;;;;;6.97;3.00;;;15.50;91.80;;;;;;5100790;28;20590;-71
2023/07/04 01:42:44;;;;;;;6.87;2.63;;;15.50;92.10;;;;;;5098446;28;20415;-74
2023/07/04 01:45:10;;;;;;;7.17;3.00;;;15.40;93.00;;;;;;5093825;28;20437;-73
2023/07/04 01:47:38;;;;;;;8.40;2.63;;;15.40;93.50;;;;;;5078536;28;20482;-75
2023/07/04 01:50:06;;;;;;;5.70;2.50;;;15.40;94.00;;;;;;5118145;28;20482;-74
2023/07/04 01:52:32;;;;;;;8.00;3.27;;;15.40;94.30;;;;;;5085563;28;20422;-75
2023/07/04 01:54:58;;;;;;;8.33;2.80;;;15.30;94.30;;;;;;5093814;28;20868;-75
2023/07/04 01:57:24;;;;;;;10.83;2.77;;;15.30;95.10;;;;;;5103893;28;20920;-73
2023/07/04 01:59:50;;;;;;;8.80;3.40;;;15.30;95.20;;;;;;5090710;28;20558;-74
2023/07/04 02:02:17;;;;;;;6.63;3.00;;;15.30;95.30;;;;;;5077655;28;20418;-72
2023/07/04 02:04:42;;;;;;;10.20;3.67;;;15.20;95.40;;;;;;5112821;28;20454;-72
2023/07/04 02:07:08;;;;;;;8.60;3.20;;;15.20;96.00;;;;;;5113031;28;20184;-71
2023/07/04 02:09:34;;;;;;;5.50;2.80;;;15.10;96.50;;;;;;5097829;28;20590;-72
2023/07/04 02:12:00;;;;;;;7.10;3.10;;;15.00;97.00;;;;;;5080714;28;20181;-72
2023/07/04 02:14:26;;;;;;;8.10;2.30;;;15.00;97.80;;;;;;5087735;28;20417;-72
2023/07/04 02:16:52;;;;;;;8.57;2.70;;;15.00;98.00;;;;;;5077363;28;20197;-72
2023/07/04 02:19:18;;;;;;;5.80;2.63;;;15.00;98.30;;;;;;5083836;28;20207;-73
2023/07/04 02:21:44;;;;;;;5.10;2.67;;;14.90;98.80;;;;;;5117938;28;20522;-72
2023/07/04 02:24:10;;;;;;;6.63;2.80;;;14.90;99.20;;;;;;5084025;28;20180;-75
2023/07/04 02:26:36;;;;;;;9.30;2.80;;;14.90;99.70;;;;;;5084289;28;20410;-73
2023/07/04 02:29:01;;;;;;;4.17;2.10;;;14.90;99.70;;;;;;5107053;28;20660;-71
2023/07/04 02:31:27;;;;;;;5.43;2.90;;;14.80;99.80;;;;;;5080088;28;20586;-71
2023/07/04 02:33:53;;;;;;;7.00;3.43;;;14.70;99.90;;;;;;5117415;28;20405;-72
2023/07/04 02:36:19;;;;;;;7.33;2.60;;;14.70;99.90;;;;;;5082576;28;20187;-71
2023/07/04 02:38:46;;;;;;;5.17;2.50;;;14.70;99.90;;;;;;5087223;28;20262;-72
2023/07/04 02:41:12;;;;;;;5.10;2.10;;;14.60;99.90;;;;;;5094290;28;20543;-72
2023/07/04 02:43:39;;;;;;;6.17;2.90;;;14.60;99.90;;;;;;5107446;28;20414;-71
2023/07/04 02:46:07;;;;;;;6.57;3.30;;;14.60;99.90;;;;;;5074086;28;20885;-72
2023/07/04 02:48:34;;;;;;;9.60;3.17;;;14.60;99.90;;;;;;5078274;28;20172;-72
2023/07/04 02:51:02;;;;;;;7.30;2.80;;;14.50;99.90;;;;;;5097578;28;20997;-72
2023/07/04 02:53:28;;;;;;;11.90;3.20;;;14.50;99.90;;;;;;5116999;28;20496;-72
2023/07/04 02:55:54;;;;;;;6.37;3.30;;;14.40;99.90;;;;;;5116876;28;20500;-71
2023/07/04 02:58:23;;;;;;;8.83;2.73;;;14.40;99.90;;;;;;5098818;28;20420;-71
2023/07/04 03:00:50;;;;;;;7.10;2.50;;;14.40;99.90;;;;;;5076516;28;20455;-73
2023/07/04 03:03:18;;;;;;;7.97;2.90;;;14.30;99.90;;;;;;5097988;28;20595;-71
2023/07/04 03:05:45;;;;;;;8.30;2.60;;;14.40;99.90;;;;;;5090705;28;20418;-72
2023/07/04 03:08:11;;;;;;;6.33;2.60;;;14.30;99.90;;;;;;5080205;28;20455;-73
2023/07/04 03:10:37;;;;;;;7.33;3.53;;;14.30;99.90;;;;;;5080058;28;20344;-75
2023/07/04 03:13:02;;;;;;;7.30;3.63;;;14.30;99.90;;;;;;5117642;28;20492;-72
2023/07/04 03:15:32;;;;;;;10.33;2.90;;;14.30;99.90;;;;;;5076778;28;20188;-72
2023/07/04 03:17:58;;;;;;;5.50;2.90;;;14.30;99.90;;;;;;5059402;28;20669;-71
2023/07/04 03:20:24;;;;;;;6.00;3.07;;;14.30;99.90;;;;;;5082511;28;20218;-71
2023/07/04 03:22:53;;;;;;;8.80;3.33;;;14.30;99.90;;;;;;5088715;28;20425;-71
2023/07/04 03:25:19;;;;;;;9.80;4.00;;;14.30;99.90;;;;;;5112026;28;20406;-74
2023/07/04 03:27:48;;;;;;;6.20;3.80;;;14.30;99.90;;;;;;5084103;28;20481;-71
2023/07/04 03:30:17;;;;;;;7.00;3.00;;;14.30;99.90;;;;;;5072263;28;20701;-73
2023/07/04 03:32:46;;;;;;;6.67;2.53;;;14.30;99.90;;;;;;5078066;28;20417;-72
2023/07/04 03:35:11;;;;;;;8.17;3.30;;;14.30;99.90;;;;;;5091302;28;20429;-72
2023/07/04 03:37:41;;;;;;;6.43;3.60;;;14.30;99.90;;;;;;5099622;28;20590;-72
2023/07/04 03:40:11;;;;;;;6.70;3.50;;;14.30;99.90;;;;;;5101192;28;20483;-73
2023/07/04 03:42:38;;;;;;;10.70;3.90;;;14.30;99.90;;;;;;5088928;28;20203;-71
2023/07/04 03:45:05;;;;;;;13.73;4.20;;;14.30;99.90;;;;;;5075205;28;20435;-74
2023/07/04 03:47:31;;;;;;;11.77;3.30;;;14.30;99.90;;;;;;5091071;28;20417;-71
2023/07/04 03:49:57;;;;;;;10.63;4.00;;;14.30;99.90;;;;;;5120276;28;20436;-72
2023/07/04 03:52:23;;;;;;;11.00;3.90;;;14.30;99.90;;;;;;5093394;28;20810;-72
2023/07/04 03:54:50;;;;;;;7.00;3.40;;;14.30;99.90;;;;;;5083481;28;20179;-72
2023/07/04 03:57:15;;;;;;;13.33;3.57;;;14.30;99.90;;;;;;5104204;28;20425;-72
2023/07/04 03:59:41;;;;;;;6.93;3.17;;;14.40;99.90;;;;;;5096799;28;20216;-71
2023/07/04 04:02:07;;;;;;;6.40;2.77;;;14.40;99.90;;;;;;5080445;28;20187;-72
2023/07/04 04:04:39;;;;;;;10.40;3.17;;;14.50;99.90;;;;;;5113382;28;20678;-73
2023/07/04 04:07:09;;;;;;;7.90;3.90;;;14.50;99.90;;;;;;5121613;28;20498;-72
2023/07/04 04:09:35;;;;;;;10.73;3.50;;;14.60;99.90;;;;;;5092188;28;20707;-72
2023/07/04 04:12:03;;;;;;;7.70;3.77;;;14.60;99.90;;;;;;5089801;28;20521;-73
2023/07/04 04:14:32;;;;;;;9.77;3.53;;;14.70;99.90;;;;;;5092734;28;20495;-73
2023/07/04 04:16:58;;;;;;;8.40;2.23;;;14.70;99.90;;;;;;5079927;28;20431;-71
2023/07/04 04:19:26;;;;;;;6.93;3.20;;;14.80;99.90;;;;;;5111188;28;20467;-72
2023/07/04 04:21:52;;;;;;;6.57;2.97;;;14.90;99.90;;;;;;5121462;28;20467;-71
2023/07/04 04:24:18;;;;;;;5.30;2.77;;;14.90;99.90;;;;;;5111105;28;20924;-73
2023/07/04 04:26:46;;;;;;;9.23;3.60;;;15.00;99.90;;;;;;5099810;28;20840;-72
2023/07/04 04:29:13;;;;;;;9.27;3.70;;;15.00;99.90;;;;;;5104569;28;20527;-71
2023/07/04 04:31:39;;;;;;;6.00;2.67;;;15.10;99.90;;;;;;5083455;28;20502;-72
2023/07/04 04:34:05;;;;;;;9.33;3.70;;;15.10;99.90;;;;;;5100481;28;20775;-72
2023/07/04 04:36:32;;;;;;;9.03;3.87;;;15.20;99.90;;;;;;5120233;28;20514;-73
2023/07/04 04:39:01;;;;;;;8.87;3.50;;;15.30;99.90;;;;;;5119178;28;20444;-73
2023/07/04 04:41:28;;;;;;;6.67;3.70;;;15.30;99.90;;;;;;5099357;28;20454;-73
2023/07/04 04:43:57;;;;;;;8.50;3.13;;;15.40;99.90;;;;;;5100104;28;20410;-72
2023/07/04 04:46:23;;;;;;;14.07;4.47;;;15.40;99.90;;;;;;5108274;28;20417;-72
2023/07/04 04:48:50;;;;;;;10.97;3.70;;;15.50;99.90;;;;;;5119192;28;20898;-73
2023/07/04 04:51:18;;;;;;;7.57;3.30;;;15.70;99.90;;;;;;5114459;28;20189;-73
2023/07/04 04:53:44;;;;;;;13.27;4.00;;;15.90;99.90;;;;;;5098068;28;20418;-73
2023/07/04 04:56:11;;;;;;;9.83;4.40;;;16.20;99.90;;;;;;5098658;28;20448;-73
2023/07/04 04:58:37;;;;;;;7.87;3.20;;;16.50;99.90;;;;;;5098611;28;20413;-72
2023/07/04 05:01:29;;;;;;;11.50;3.73;;;16.80;99.90;;;;;;5100147;28;20474;-73
2023/07/04 05:03:55;;;;;;;10.27;4.13;;;17.10;98.20;;;;;;5099163;28;20467;-74
2023/07/04 05:06:23;;;;;;;8.87;3.50;;;17.30;96.40;;;;;;5085007;28;20422;-74
2023/07/04 05:08:50;;;;;;;13.20;3.90;;;17.50;95.00;;;;;;5102909;28;20521;-77
2023/07/04 05:11:16;;;;;;;7.17;3.43;;;17.80;92.70;;;;;;5089573;28;20659;-74
2023/07/04 05:13:44;;;;;;;8.87;4.00;;;18.00;92.10;;;;;;5085262;28;20434;-73
2023/07/04 05:16:12;;;;;;;6.07;3.07;;;18.30;90.30;;;;;;5096159;28;20439;-73
2023/07/04 05:18:38;;;;;;;7.77;3.33;;;18.60;85.70;;;;;;5119566;28;20434;-74
2023/07/04 05:21:06;;;;;;;11.00;4.30;;;18.80;82.60;;;;;;5104336;28;20950;-73
2023/07/04 05:23:39;;;;;;;15.93;4.93;;;19.00;80.40;;;;;;5102414;28;20634;-74
2023/07/04 05:26:11;;;;;;;8.27;3.80;;;19.10;76.60;;;;;;5128679;28;20454;-74
2023/07/04 05:28:38;;;;;;;8.50;3.17;;;19.30;75.70;;;;;;5097395;28;20504;-73
2023/07/04 05:31:10;;;;;;;8.07;3.33;;;19.50;74.00;;;;;;5101961;28;20529;-72
2023/07/04 05:33:36;;;;;;;4.40;2.20;;;19.90;71.40;;;;;;5084918;28;20425;-74
2023/07/04 05:36:07;;;;;;;10.73;3.90;;;20.20;69.50;;;;;;5104976;28;20410;-74
2023/07/04 05:38:33;;;;;;;8.67;3.50;;;20.30;66.40;;;;;;5107118;28;20414;-74
2023/07/04 05:40:59;;;;;;;13.63;3.30;;;20.60;65.80;;;;;;5118043;28;20478;-74
2023/07/04 05:43:26;;;;;;;5.83;2.83;;;20.70;63.30;;;;;;5127821;28;20406;-73
2023/07/04 05:45:53;;;;;;;6.87;3.67;;;20.80;63.10;;;;;;5094769;28;20424;-77
2023/07/04 05:48:19;;;;;;;8.73;3.83;;;20.90;60.70;;;;;;5073371;28;20383;-73
2023/07/04 05:50:55;;;;;;;10.97;3.87;;;21.10;59.70;;;;;;5115427;28;20434;-73
2023/07/04 05:53:28;;;;;;;11.90;4.67;;;20.90;59.20;;;;;;5122065;28;20222;-77
2023/07/04 05:56:18;;;;;;;9.70;3.80;;;20.90;59.30;;;;;;5119991;28;20397;-78
2023/07/04 05:58:50;;;;;;;13.00;4.07;;;21.00;59.10;;;;;;5109610;28;20418;-72
2023/07/04 06:01:32;;;;;;;9.83;4.03;;;20.90;59.00;;;;;;5092950;28;20519;-73
2023/07/04 06:03:58;;;;;;;12.40;4.40;;;20.90;59.00;;;;;;5097157;28;20907;-75
2023/07/04 06:06:34;;;;;;;13.03;4.87;;;21.00;58.70;;;;;;5091103;28;20409;-74
2023/07/04 06:09:02;;;;;;;7.60;3.83;;;21.30;58.00;;;;;;5089692;28;20503;-76
2023/07/04 06:11:35;;;;;;;8.10;3.47;;;21.20;58.30;;;;;;5085301;28;20918;-73
2023/07/04 06:14:02;;;;;;;11.10;3.97;;;21.20;58.00;;;;;;5125855;28;20433;-76
2023/07/04 06:16:29;;;;;;;10.57;3.67;;;21.50;58.00;;;;;;5107642;28;20450;-74
2023/07/04 06:18:54;;;;;;;8.00;3.73;;;21.50;57.10;;;;;;5069169;28;20455;-73
2023/07/04 06:21:22;;;;;;;8.50;3.00;;;21.30;57.10;;;;;;5104154;28;20441;-75
2023/07/04 06:23:49;;;;;;;14.87;4.97;;;21.40;57.10;;;;;;5106904;28;20182;-74
2023/07/04 06:26:15;;;;;;;8.13;3.60;;;21.40;57.10;;;;;;5121002;28;20385;-77
2023/07/04 06:28:42;;;;;;;13.53;3.53;;;21.70;57.20;;;;;;5075955;28;20421;-72
2023/07/04 06:31:11;;;;;;;7.83;3.43;;;22.00;56.40;;;;;;5104836;28;20449;-77
2023/07/04 06:33:37;;;;;;;9.47;3.80;;;22.30;55.60;;;;;;5092423;28;20419;-76
2023/07/04 06:36:03;;;;;;;8.57;3.73;;;22.50;55.00;;;;;;5092188;28;20446;-79
2023/07/04 06:38:29;;;;;;;9.40;4.33;;;22.70;54.30;;;;;;5098908;28;20172;-79
2023/07/04 06:41:05;;;;;;;7.53;3.60;;;22.80;53.70;;;;;;5108998;28;21090;-77
2023/07/04 06:43:33;;;;;;;10.20;4.07;;;22.80;53.10;;;;;;5085431;28;20240;-75
2023/07/04 06:45:59;;;;;;;10.90;3.93;;;23.00;52.90;;;;;;5083449;28;20456;-75
2023/07/04 06:48:26;;;;;;;8.80;3.37;;;22.90;52.30;;;;;;5102773;28;20429;-75
2023/07/04 06:50:57;;;;;;;19.27;4.83;;;22.70;52.30;;;;;;5088162;28;20653;-76
2023/07/04 06:53:22;;;;;;;9.00;4.00;;;22.40;53.30;;;;;;5091275;28;20475;-76
2023/07/04 06:55:48;;;;;;;5.57;3.27;;;22.60;53.10;;;;;;5073755;28;20418;-74
2023/07/04 06:58:15;;;;;;;5.70;2.93;;;22.80;52.80;;;;;;5110250;28;20266;-78
2023/07/04 07:00:41;;;;;;;7.97;3.90;;;23.00;52.50;;;;;;5068943;28;20406;-74
2023/07/04 07:03:07;;;;;;;9.17;3.70;;;23.20;51.90;;;;;;5105267;28;20454;-76
2023/07/04 07:05:37;;;;;;;14.73;4.03;;;23.10;51.30;;;;;;5097074;28;20425;-73
2023/07/04 07:08:03;;;;;;;10.83;3.63;;;23.10;51.70;;;;;;5112902;28;20240;-74
2023/07/04 07:10:31;;;;;;;8.83;3.60;;;23.10;51.10;;;;;;5096418;28;20898;-74
2023/07/04 07:12:57;;;;;;;7.10;3.47;;;23.00;50.80;;;;;;5097185;28;20193;-76
2023/07/04 07:15:24;;;;;;;11.50;4.07;;;23.00;51.20;;;;;;5052579;28;20640;-76
2023/07/04 07:17:50;;;;;;;8.00;2.87;;;23.10;50.90;;;;;;5085016;28;20478;-74
2023/07/04 07:20:15;;;;;;;7.40;3.10;;;23.20;50.90;;;;;;5123353;28;20998;-73
2023/07/04 07:22:41;;;;;;;7.67;3.20;;;23.30;50.70;;;;;;5125229;28;20583;-73
2023/07/04 07:25:06;;;;;;;6.90;3.10;;;23.10;50.90;;;;;;5091131;28;20183;-75
2023/07/04 07:27:32;;;;;;;7.50;3.63;;;23.10;50.50;;;;;;5096945;28;20552;-74
2023/07/04 07:29:58;;;;;;;7.93;3.73;;;23.00;51.10;;;;;;5094312;28;20208;-76
2023/07/04 07:32:23;;;;;;;9.80;3.90;;;23.00;51.30;;;;;;5087869;28;20186;-75
2023/07/04 07:34:49;;;;;;;16.00;4.60;;;22.90;50.90;;;;;;5110160;28;20191;-78
2023/07/04 07:37:15;;;;;;;9.60;4.17;;;22.70;51.40;;;;;;5094665;28;20202;-77
2023/07/04 07:39:42;;;;;;;8.03;3.73;;;22.40;51.70;;;;;;5111908;28;20210;-74
2023/07/04 07:42:08;;;;;;;9.13;3.77;;;22.10;52.50;;;;;;5110107;28;20202;-76
2023/07/04 07:44:33;;;;;;;8.40;4.07;;;21.90;52.70;;;;;;5122754;28;20398;-76
2023/07/04 07:46:59;;;;;;;7.40;3.77;;;21.70;53.00;;;;;;5066027;28;20574;-74
2023/07/04 07:49:25;;;;;;;9.73;4.50;;;21.70;53.20;;;;;;5124629;28;20211;-74
2023/07/04 07:51:50;;;;;;;8.93;3.93;;;21.60;53.20;;;;;;5077402;28;20256;-73
2023/07/04 07:54:16;;;;;;;7.53;3.40;;;21.80;53.20;;;;;;5073950;28;20192;-76
2023/07/04 07:56:44;;;;;;;8.23;3.80;;;22.10;52.80;;;;;;5105963;28;20188;-74
2023/07/04 07:59:10;;;;;;;12.13;4.77;;;22.00;53.00;;;;;;5062595;28;20217;-75
2023/07/04 08:01:36;;;;;;;7.40;3.03;;;22.10;52.60;;;;;;5093635;28;20510;-75
2023/07/04 08:04:03;;;;;;;8.97;3.40;;;22.10;52.70;;;;;;5121661;28;20461;-78
2023/07/04 08:06:40;;;;;;;6.33;3.50;;;22.20;52.40;;;;;;5073602;28;20189;-76
2023/07/04 08:09:08;;;;;;;8.73;4.10;;;22.30;52.00;;;;;;5085123;28;20456;-77
2023/07/04 08:11:34;;;;;;;8.07;3.13;;;22.20;51.80;;;;;;5088791;28;20928;-73
2023/07/04 08:14:01;;;;;;;15.47;3.93;;;21.90;52.40;;;;;;5092289;28;20782;-75
2023/07/04 08:16:30;;;;;;;8.83;3.57;;;21.80;52.60;;;;;;5067753;28;20726;-76
2023/07/04 08:18:57;;;;;;;11.53;3.80;;;21.70;53.40;;;;;;5080275;28;20703;-75
2023/07/04 08:21:23;;;;;;;5.77;3.20;;;21.70;53.50;;;;;;5087572;28;20533;-74
2023/07/04 08:23:49;;;;;;;15.53;3.80;;;21.90;53.20;;;;;;5107638;28;20418;-75
2023/07/04 08:26:20;;;;;;;10.20;4.47;;;22.10;52.20;;;;;;5104378;28;20424;-76
2023/07/04 08:28:46;;;;;;;9.20;3.67;;;22.20;51.40;;;;;;5110563;28;20184;-75
2023/07/04 08:31:13;;;;;;;6.33;2.60;;;22.00;51.70;;;;;;5094809;28;20443;-75
2023/07/04 08:33:39;;;;;;;8.43;3.13;;;22.10;51.70;;;;;;5120499;28;20465;-77
2023/07/04 08:36:08;;;;;;;5.50;2.57;;;22.20;51.60;;;;;;5089214;28;20399;-74
2023/07/04 08:38:34;;;;;;;10.70;4.23;;;22.40;51.20;;;;;;5109511;28;20181;-76
2023/07/04 08:41:00;;;;;;;11.80;4.63;;;22.60;50.20;;;;;;5108794;28;20433;-77
2023/07/04 08:43:44;;;;;;;9.50;3.13;;;22.50;49.70;;;;;;5128775;28;20430;-74
2023/07/04 08:46:12;;;;;;;8.13;3.30;;;22.40;49.10;;;;;;5089854;28;20222;-76
2023/07/04 08:48:42;;;;;;;13.03;4.07;;;22.40;49.40;;;;;;5071520;28;20518;-73
2023/07/04 08:51:10;;;;;;;11.67;3.93;;;22.30;49.10;;;;;;5074937;28;20446;-75
2023/07/04 08:53:39;;;;;;;12.60;3.80;;;22.00;49.80;;;;;;5111264;28;20478;-76
2023/07/04 08:56:28;;;;;;;6.43;3.00;;;21.60;49.90;;;;;;5125144;28;20429;-74
2023/07/04 08:59:18;;;;;;;6.23;3.40;;;21.60;50.20;;;;;;5117298;28;20404;-75
2023/07/04 09:02:23;;;;;;;5.80;2.53;;;21.90;49.40;;;;;;5080997;28;20459;-76
2023/07/04 09:05:17;;;;;;;9.70;3.10;;;22.00;49.00;;;;;;5106531;28;20453;-77
2023/07/04 09:07:58;;;;;;;3.70;2.20;;;22.30;48.30;;;;;;5095428;28;20845;-76
2023/07/04 09:10:46;;;;;;;9.97;3.90;;;22.60;48.10;;;;;;5091424;28;20451;-79
2023/07/04 09:13:34;;;;;;;10.33;3.87;;;22.80;47.10;;;;;;5087701;28;20418;-76
2023/07/04 09:16:05;;;;;;;5.70;3.20;;;22.70;46.90;;;;;;5069418;28;20431;-76
2023/07/04 09:18:41;;;;;;;8.30;3.80;;;22.60;46.70;;;;;;5074794;28;20419;-78
2023/07/04 09:21:17;;;;;;;10.70;3.47;;;22.60;46.80;;;;;;5083902;28;20621;-77
2023/07/04 09:23:45;;;;;;;7.90;3.23;;;22.60;47.00;;;;;;5111894;28;20393;-74
2023/07/04 09:26:14;;;;;;;7.43;3.23;;;22.70;46.90;;;;;;5083966;28;20440;-76
2023/07/04 09:28:43;;;;;;;5.37;3.10;;;22.80;46.90;;;;;;5108950;28;20406;-77
2023/07/04 09:31:24;;;;;;;6.80;3.60;;;22.90;46.80;;;;;;5095702;28;20437;-76
2023/07/04 09:33:52;;;;;;;8.70;3.50;;;23.00;46.80;;;;;;5115605;28;20453;-77
2023/07/04 09:36:19;;;;;;;6.87;3.90;;;23.00;46.20;;;;;;5076402;28;20389;-77
2023/07/04 09:38:58;;;;;;;5.60;3.20;;;23.00;46.60;;;;;;5109824;28;20402;-74
2023/07/04 09:41:26;;;;;;;10.13;3.73;;;23.20;46.10;;;;;;5106941;28;20514;-76
2023/07/04 09:43:56;;;;;;;6.80;3.33;;;23.10;46.20;;;;;;5096694;28;20398;-76
2023/07/04 09:46:28;;;;;;;5.27;3.00;;;23.00;46.30;;;;;;5079241;28;20430;-77
2023/07/04 09:49:14;;;;;;;5.30;2.87;;;22.70;46.70;;;;;;5071492;28;20534;-75
2023/07/04 09:51:40;;;;;;;12.90;4.10;;;22.90;47.10;;;;;;5131893;28;20432;-78
2023/07/04 09:54:18;;;;;;;9.00;3.73;;;23.00;46.70;;;;;;5082369;28;20419;-76
2023/07/04 09:56:44;;;;;;;6.57;3.87;;;23.00;46.60;;;;;;5095345;28;20171;-77
2023/07/04 09:59:21;;;;;;;6.70;3.40;;;23.00;47.00;;;;;;5104181;28;20438;-76
2023/07/04 10:01:52;;;;;;;7.20;4.53;;;22.90;47.00;;;;;;5075474;28;20446;-75
2023/07/04 10:04:27;;;;;;;6.73;3.43;;;22.90;47.10;;;;;;5076406;28;20542;-74
2023/07/04 10:06:54;;;;;;;9.00;4.60;;;22.90;47.10;;;;;;5098428;28;20433;-77
2023/07/04 10:09:20;;;;;;;8.00;4.67;;;23.00;47.30;;;;;;5086900;28;20475;-75
2023/07/04 10:11:48;;;;;;;6.50;3.80;;;23.30;47.00;;;;;;5073729;28;20379;-77
2023/07/04 10:14:15;;;;;;;6.90;3.80;;;23.30;46.40;;;;;;5071997;28;20454;-75
2023/07/04 10:16:50;;;;;;;9.53;4.20;;;23.40;46.50;;;;;;5087453;28;20409;-76
2023/07/04 10:19:21;;;;;;;11.40;4.30;;;23.50;46.00;;;;;;5125010;28;20457;-76
2023/07/04 10:21:53;;;;;;;8.77;3.80;;;23.70;46.00;;;;;;5111506;28;20448;-74
2023/07/04 10:24:21;;;;;;;10.67;5.17;;;23.70;46.10;;;;;;5099970;28;20425;-77
2023/07/04 10:26:50;;;;;;;6.37;4.23;;;23.80;46.20;;;;;;5075841;28;20433;-77
2023/07/04 10:29:20;;;;;;;7.80;4.43;;;24.00;45.90;;;;;;5076898;28;20467;-77
2023/07/04 10:31:48;;;;;;;8.20;4.50;;;24.10;45.40;;;;;;5063795;28;20908;-74
2023/07/04 10:34:18;;;;;;;19.23;5.60;;;24.20;45.20;;;;;;5107172;28;20406;-76
2023/07/04 10:36:49;;;;;;;8.87;4.70;;;24.30;44.80;;;;;;5093710;28;20851;-78
2023/07/04 10:39:17;;;;;;;10.07;5.67;;;24.30;45.00;;;;;;5109586;28;20441;-78
2023/07/04 10:41:53;;;;;;;5.30;4.10;;;24.40;44.70;;;;;;5094680;28;20472;-75
2023/07/04 10:44:25;;;;;;;7.37;4.70;;;24.40;44.90;;;;;;5110670;28;20493;-78
2023/07/04 10:46:56;;;;;;;9.60;5.33;;;24.60;44.10;;;;;;5093307;28;20506;-77
2023/07/04 10:49:25;;;;;;;7.57;4.13;;;24.60;44.00;;;;;;5093981;28;20439;-78
2023/07/04 10:52:22;;;;;;;8.70;4.53;;;24.70;43.70;;;;;;5118174;28;20434;-75
2023/07/04 10:54:47;;;;;;;7.83;4.70;;;24.90;43.30;;;;;;5131191;28;20415;-77
2023/07/04 10:57:22;;;;;;;7.20;4.27;;;24.80;43.00;;;;;;5096289;28;20430;-75
2023/07/04 10:59:50;;;;;;;7.53;4.50;;;24.80;43.10;;;;;;5085805;28;20295;-79
2023/07/04 11:02:23;;;;;;;8.40;4.30;;;24.90;43.20;;;;;;5093860;28;20429;-74
2023/07/04 11:04:50;;;;;;;9.53;4.70;;;24.90;43.30;;;;;;5093932;28;20549;-77
2023/07/04 11:07:22;;;;;;;11.83;5.90;;;24.60;43.30;;;;;;5131938;28;20389;-78
2023/07/04 11:09:55;;;;;;;8.30;4.80;;;24.30;44.10;;;;;;5100714;28;20420;-76
2023/07/04 11:12:26;;;;;;;7.10;5.00;;;24.30;44.10;;;;;;5118053;28;20405;-75
2023/07/04 11:15:02;;;;;;;8.00;4.90;;;24.40;44.60;;;;;;5123302;28;20395;-77
2023/07/04 11:17:30;;;;;;;18.13;8.03;;;24.60;44.30;;;;;;5115525;28;20682;-76
2023/07/04 11:20:13;;;;;;;11.23;4.93;;;24.60;44.00;;;;;;5129491;28;20445;-76
2023/07/04 11:23:00;;;;;;;7.20;4.40;;;24.90;43.10;;;;;;5132148;28;20509;-77
2023/07/04 11:25:34;;;;;;;8.13;5.30;;;25.10;42.00;;;;;;5114024;28;20713;-76
2023/07/04 11:28:41;;;;;;;15.93;11.53;;;25.10;42.10;;;;;;5113423;28;20442;-78
2023/07/04 11:31:22;;;;;;;6.43;5.07;;;25.20;42.00;;;;;;5078728;28;20449;-78
2023/07/04 11:33:55;;;;;;;6.63;4.43;;;25.20;42.00;;;;;;5073626;28;20386;-77
2023/07/04 11:36:32;;;;;;;13.87;6.57;;;25.30;41.60;;;;;;5069912;28;20872;-75
2023/07/04 11:39:00;;;;;;;5.70;5.00;;;24.70;41.10;;;;;;5052737;28;20394;-74
2023/07/04 11:41:39;;;;;;;6.67;4.97;;;24.70;41.70;;;;;;5076825;28;20472;-77
2023/07/04 11:44:21;;;;;;;9.00;5.97;;;24.70;41.60;;;;;;5096474;28;20477;-78
2023/07/04 11:47:05;;;;;;;5.73;4.40;;;24.80;41.30;;;;;;5097336;28;20453;-78
2023/07/04 11:49:32;;;;;;;9.47;5.73;;;24.90;41.70;;;;;;5131802;28;20456;-77
2023/07/04 11:52:16;;;;;;;7.40;5.10;;;25.10;41.20;;;;;;5115020;28;20417;-78
2023/07/04 11:54:44;;;;;;;11.43;6.70;;;25.30;41.10;;;;;;5113517;28;20406;-76
2023/07/04 11:57:10;;;;;;;8.53;6.03;;;25.60;40.00;;;;;;5102395;28;20402;-76
2023/07/04 11:59:46;;;;;;;7.20;5.60;;;25.20;40.40;;;;;;5092790;28;20438;-77
2023/07/04 12:02:27;;;;;;;6.97;4.90;;;25.10;40.90;;;;;;5072408;28;20414;-78
2023/07/04 12:04:54;;;;;;;8.33;5.37;;;25.10;41.20;;;;;;5073101;28;20453;-77
2023/07/04 12:07:46;;;;;;;11.30;5.07;;;25.10;40.50;;;;;;5095208;28;20505;-77
2023/07/04 12:10:20;;;;;;;11.77;6.60;;;25.20;40.60;;;;;;5115345;28;20429;-77
2023/07/04 12:12:56;;;;;;;7.93;5.67;;;25.20;40.90;;;;;;5089872;28;20453;-78
2023/07/04 12:15:30;;;;;;;7.73;5.60;;;25.40;40.30;;;;;;5078789;28;20422;-78
2023/07/04 12:17:59;;;;;;;13.53;5.80;;;25.40;40.20;;;;;;5110969;28;20485;-76
2023/07/04 12:20:30;;;;;;;9.90;6.20;;;25.60;40.10;;;;;;5111411;28;20421;-78
2023/07/04 12:22:59;;;;;;;10.43;6.83;;;25.40;38.90;;;;;;5120202;28;20387;-78
2023/07/04 12:25:44;;;;;;;7.80;6.13;;;25.30;38.80;;;;;;5099594;28;20840;-76
2023/07/04 12:28:11;;;;;;;7.23;6.00;;;25.40;39.10;;;;;;5116992;28;20417;-78
2023/07/04 12:30:46;;;;;;;8.83;7.87;;;25.50;39.30;;;;;;5066988;28;20443;-76
2023/07/04 12:33:20;;;;;;;9.60;6.57;;;25.50;39.00;;;;;;5086581;28;20419;-78
2023/07/04 12:35:54;;;;;;;8.57;6.37;;;25.40;39.40;;;;;;5096568;28;20415;-78
2023/07/04 12:38:25;;;;;;;11.43;9.27;;;25.10;39.40;;;;;;5087187;28;20434;-76
2023/07/04 12:40:51;;;;;;;13.27;6.87;;;24.90;40.40;;;;;;5096702;28;20865;-77
2023/07/04 12:43:18;;;;;;;8.80;6.60;;;24.70;40.40;;;;;;5075185;28;20686;-78
2023/07/04 12:45:44;;;;;;;8.87;7.10;;;24.60;41.10;;;;;;5082440;28;20441;-79
2023/07/04 12:48:10;;;;;;;8.30;6.47;;;24.80;40.40;;;;;;5107213;28;20443;-77
2023/07/04 12:50:44;;;;;;;10.40;7.03;;;25.00;40.10;;;;;;5128152;28;20207;-75
2023/07/04 12:53:10;;;;;;;10.53;7.43;;;25.00;39.40;;;;;;5129413;28;20415;-77
2023/07/04 12:55:39;;;;;;;10.53;6.03;;;25.10;39.00;;;;;;5109376;28;20890;-75
2023/07/04 12:58:05;;;;;;;10.20;7.57;;;24.80;39.50;;;;;;5116818;28;20603;-76